Time;durP1;ratioP1;P1;durP2;ratioP2;P2;SDS_P1;SDS_P2;PMS_P1;PMS_P2;Temp;Humidity;BMP_temperature;BMP_pressure;BME280_temperature;BME280_humidity;BME280_pressure;Samples;Min_cycle;Max_cycle;Signal;HPM_P1;HPM_P2
2022/10/14 00:01:44;;;;;;;70.60;25.30;;;12.30;99.90;;;;;;5026408;28;20225;-78
2022/10/14 00:04:11;;;;;;;70.90;27.77;;;12.60;99.90;;;;;;5021417;28;20233;-80
2022/10/14 00:06:44;;;;;;;67.73;25.33;;;12.30;99.90;;;;;;5021275;28;20296;-79
2022/10/14 00:09:12;;;;;;;72.37;24.47;;;12.20;99.90;;;;;;5036134;28;20215;-79
2022/10/14 00:11:42;;;;;;;70.67;27.47;;;12.20;99.90;;;;;;5042239;28;20681;-79
2022/10/14 00:14:16;;;;;;;59.17;23.60;;;12.20;99.90;;;;;;5018993;28;20202;-80
2022/10/14 00:16:54;;;;;;;54.43;23.10;;;12.30;99.90;;;;;;5037350;28;20255;-80
2022/10/14 00:19:22;;;;;;;51.87;22.57;;;12.20;99.90;;;;;;5027175;28;20249;-78
2022/10/14 00:22:00;;;;;;;59.57;23.90;;;12.30;99.90;;;;;;5039837;28;20224;-78
2022/10/14 00:24:27;;;;;;;65.20;24.70;;;12.30;99.90;;;;;;5041402;28;20658;-78
2022/10/14 00:26:54;;;;;;;58.77;23.63;;;12.30;99.90;;;;;;5043385;28;20262;-79
2022/10/14 00:29:25;;;;;;;77.23;25.67;;;12.80;99.90;;;;;;5037781;28;20213;-80
2022/10/14 00:31:55;;;;;;;55.17;22.07;;;12.30;99.90;;;;;;5025882;28;20201;-78
2022/10/14 00:34:22;;;;;;;60.67;22.77;;;12.30;99.90;;;;;;5037126;28;20320;-78
2022/10/14 00:36:49;;;;;;;57.70;24.00;;;12.30;99.90;;;;;;5039076;28;20285;-78
2022/10/14 00:39:16;;;;;;;80.83;24.70;;;12.20;99.90;;;;;;5035265;28;20194;-80
2022/10/14 00:41:43;;;;;;;66.43;25.17;;;12.20;99.90;;;;;;5040257;28;20318;-79
2022/10/14 00:44:13;;;;;;;68.87;24.43;;;12.20;99.90;;;;;;5028911;28;20213;-79
2022/10/14 00:46:48;;;;;;;83.70;25.93;;;12.20;99.90;;;;;;5035288;28;20333;-80
2022/10/14 00:49:35;;;;;;;97.50;25.73;;;12.20;99.90;;;;;;5024346;28;20694;-79
2022/10/14 00:52:08;;;;;;;83.57;25.53;;;12.10;99.90;;;;;;5056875;28;20205;-79
2022/10/14 00:54:42;;;;;;;84.63;25.87;;;12.10;99.90;;;;;;5021359;28;20241;-80
2022/10/14 00:57:10;;;;;;;68.23;23.83;;;12.10;99.90;;;;;;5012973;28;20202;-79
2022/10/14 00:59:37;;;;;;;67.60;23.97;;;12.10;99.90;;;;;;5036075;28;20291;-78
2022/10/14 01:02:04;;;;;;;101.80;25.37;;;12.10;99.90;;;;;;5039470;28;20324;-78
2022/10/14 01:04:32;;;;;;;99.37;23.97;;;12.60;99.90;;;;;;5037296;28;20761;-80
2022/10/14 01:07:25;;;;;;;141.43;26.40;;;12.20;99.90;;;;;;5038782;28;20206;-80
2022/10/14 01:09:58;;;;;;;128.10;25.10;;;12.00;99.90;;;;;;5040105;28;20699;-79
2022/10/14 01:12:36;;;;;;;78.63;24.27;;;11.90;99.90;;;;;;5034866;28;20209;-78
2022/10/14 01:15:23;;;;;;;77.13;21.63;;;11.90;99.90;;;;;;5042597;28;20204;-80
2022/10/14 01:18:22;;;;;;;82.93;20.13;;;11.90;99.90;;;;;;5022468;28;20208;-80
2022/10/14 01:21:27;;;;;;;104.53;21.03;;;11.90;99.90;;;;;;5032249;28;20229;-79
2022/10/14 01:24:20;;;;;;;84.50;18.90;;;11.90;99.90;;;;;;5036689;28;20671;-79
2022/10/14 01:27:09;;;;;;;89.43;19.50;;;11.90;99.90;;;;;;5043249;28;20223;-80
2022/10/14 01:29:45;;;;;;;69.80;18.30;;;11.80;99.90;;;;;;5039400;28;20241;-79
2022/10/14 01:32:20;;;;;;;69.97;18.23;;;11.90;99.90;;;;;;5047407;28;20209;-78
2022/10/14 01:34:58;;;;;;;71.23;17.43;;;11.90;99.90;;;;;;5039011;28;20233;-79
2022/10/14 01:37:28;;;;;;;64.60;16.60;;;11.90;99.90;;;;;;5038511;28;20232;-78
2022/10/14 01:40:01;;;;;;;56.37;16.37;;;11.90;99.90;;;;;;5020895;28;20244;-78
2022/10/14 01:42:32;;;;;;;76.63;17.37;;;12.50;99.90;;;;;;5025073;28;20653;-79
2022/10/14 01:45:16;;;;;;;74.67;16.90;;;11.90;99.90;;;;;;5024071;28;20204;-79
2022/10/14 01:47:45;;;;;;;83.03;16.73;;;12.00;99.90;;;;;;5042093;28;20224;-78
2022/10/14 01:50:17;;;;;;;59.80;14.57;;;12.00;99.90;;;;;;5041156;28;20628;-78
2022/10/14 01:53:07;;;;;;;64.33;15.73;;;11.90;99.90;;;;;;5047695;28;20564;-77
2022/10/14 01:55:38;;;;;;;63.13;16.23;;;12.00;99.90;;;;;;5040067;28;20256;-78
2022/10/14 01:58:07;;;;;;;101.73;19.80;;;12.40;99.90;;;;;;5023482;28;20621;-78
2022/10/14 02:00:37;;;;;;;107.00;17.73;;;11.90;99.90;;;;;;5026327;28;20220;-79
2022/10/14 02:03:04;;;;;;;115.70;16.87;;;12.00;99.90;;;;;;5040361;28;20244;-78
2022/10/14 02:05:40;;;;;;;62.57;14.17;;;12.00;99.90;;;;;;5040886;28;20264;-78
2022/10/14 02:08:21;;;;;;;108.83;15.00;;;11.90;99.90;;;;;;5044275;28;20282;-79
2022/10/14 02:11:05;;;;;;;65.87;13.77;;;11.90;99.90;;;;;;5053086;28;20196;-78
2022/10/14 02:14:10;;;;;;;68.47;12.23;;;11.80;99.90;;;;;;5038856;28;20227;-79
2022/10/14 02:17:01;;;;;;;60.23;12.93;;;11.80;99.90;;;;;;5023591;28;20213;-78
2022/10/14 02:19:41;;;;;;;71.10;13.23;;;11.70;99.90;;;;;;5041742;28;20290;-78
2022/10/14 02:22:13;;;;;;;61.20;11.97;;;11.70;99.90;;;;;;5040780;28;20209;-79
2022/10/14 02:24:43;;;;;;;81.67;12.83;;;11.70;99.90;;;;;;5020110;28;20297;-78
2022/10/14 02:27:13;;;;;;;57.93;12.10;;;11.70;99.90;;;;;;5040581;28;20198;-79
2022/10/14 02:29:43;;;;;;;104.17;15.50;;;11.70;99.90;;;;;;5021800;28;20433;-79
2022/10/14 02:32:16;;;;;;;76.73;13.77;;;11.60;99.90;;;;;;5042643;28;20249;-78
2022/10/14 02:34:46;;;;;;;70.63;14.73;;;11.60;99.90;;;;;;5038584;28;20248;-78
2022/10/14 02:37:15;;;;;;;72.17;14.53;;;11.70;99.90;;;;;;5041881;28;20248;-79
2022/10/14 02:39:56;;;;;;;62.63;13.77;;;11.80;99.90;;;;;;5021244;28;20587;-79
2022/10/14 02:42:23;;;;;;;86.33;14.50;;;11.70;99.90;;;;;;5041867;28;20891;-79
2022/10/14 02:44:58;;;;;;;82.60;14.97;;;11.70;99.90;;;;;;5016999;28;20205;-79
2022/10/14 02:47:26;;;;;;;78.17;12.97;;;11.60;99.90;;;;;;5039329;28;20216;-80
2022/10/14 02:49:53;;;;;;;74.20;13.57;;;11.90;99.90;;;;;;5041078;28;20864;-79
2022/10/14 02:52:22;;;;;;;72.90;12.83;;;11.60;99.90;;;;;;5044417;28;20231;-79
2022/10/14 02:54:52;;;;;;;81.17;13.50;;;11.60;99.90;;;;;;5023948;28;20240;-78
2022/10/14 02:57:19;;;;;;;77.60;15.20;;;11.60;99.90;;;;;;5022411;28;20282;-80
2022/10/14 02:59:46;;;;;;;85.37;14.40;;;11.60;99.90;;;;;;5044067;28;20205;-77
2022/10/14 03:02:13;;;;;;;89.53;14.83;;;11.60;99.90;;;;;;5050276;28;20201;-78
2022/10/14 03:04:41;;;;;;;55.60;13.63;;;11.80;99.90;;;;;;5037644;28;20240;-78
2022/10/14 03:07:08;;;;;;;64.80;15.00;;;11.50;99.90;;;;;;5034518;28;20752;-79
2022/10/14 03:09:35;;;;;;;80.73;16.20;;;11.50;99.90;;;;;;5041520;28;20641;-77
2022/10/14 03:12:02;;;;;;;102.80;15.77;;;11.50;99.90;;;;;;5019332;28;20237;-78
2022/10/14 03:14:29;;;;;;;62.93;15.17;;;11.50;99.90;;;;;;5038393;28;20217;-79
2022/10/14 03:16:56;;;;;;;49.90;15.43;;;11.50;99.90;;;;;;5047574;28;20204;-78
2022/10/14 03:19:23;;;;;;;79.60;15.83;;;11.50;99.90;;;;;;5037005;28;20226;-78
2022/10/14 03:21:50;;;;;;;71.93;15.63;;;11.50;99.90;;;;;;5049480;28;20205;-78
2022/10/14 03:24:17;;;;;;;90.27;15.60;;;11.50;99.90;;;;;;5043482;28;20323;-79
2022/10/14 03:26:44;;;;;;;91.40;17.53;;;11.60;99.90;;;;;;5025703;28;20236;-80
2022/10/14 03:29:11;;;;;;;99.37;17.80;;;11.60;99.90;;;;;;5035562;28;20571;-78
2022/10/14 03:31:38;;;;;;;88.43;18.03;;;11.60;99.90;;;;;;5050332;28;20230;-79
2022/10/14 03:34:05;;;;;;;99.13;17.70;;;11.50;99.90;;;;;;5037339;28;20257;-79
2022/10/14 03:36:32;;;;;;;105.27;19.43;;;11.60;99.90;;;;;;5021435;28;20202;-79
2022/10/14 03:38:59;;;;;;;122.93;20.27;;;11.70;99.90;;;;;;5043126;28;20196;-78
2022/10/14 03:41:26;;;;;;;91.70;17.03;;;11.70;99.90;;;;;;5044387;28;20205;-79
2022/10/14 03:43:53;;;;;;;137.23;19.87;;;11.70;99.90;;;;;;5040284;28;20227;-78
2022/10/14 03:46:20;;;;;;;152.90;19.73;;;11.70;99.90;;;;;;5039612;28;20286;-78
2022/10/14 03:48:47;;;;;;;116.10;21.07;;;11.70;99.90;;;;;;5046018;28;20251;-78
2022/10/14 03:51:18;;;;;;;88.93;19.57;;;11.70;99.90;;;;;;5045184;28;20631;-80
2022/10/14 03:53:45;;;;;;;81.67;19.13;;;11.70;99.90;;;;;;5040063;28;20529;-80
2022/10/14 03:56:12;;;;;;;83.60;19.40;;;11.80;99.90;;;;;;5039653;28;20300;-77
2022/10/14 03:58:39;;;;;;;68.17;19.30;;;11.80;99.90;;;;;;5041991;28;20208;-79
2022/10/14 04:01:06;;;;;;;83.33;20.57;;;11.90;99.90;;;;;;5045087;28;20197;-79
2022/10/14 04:03:33;;;;;;;82.50;21.17;;;11.80;99.90;;;;;;5024731;28;20663;-79
2022/10/14 04:06:00;;;;;;;76.73;21.73;;;11.80;99.90;;;;;;5038355;28;20276;-78
2022/10/14 04:08:27;;;;;;;79.63;22.10;;;11.80;99.90;;;;;;5036016;28;20267;-78
2022/10/14 04:10:54;;;;;;;82.03;22.67;;;11.80;99.90;;;;;;5039971;28;20216;-79
2022/10/14 04:13:22;;;;;;;91.37;22.87;;;11.80;99.90;;;;;;5038703;28;20284;-77
2022/10/14 04:15:49;;;;;;;88.13;24.23;;;11.80;99.90;;;;;;5041838;28;20213;-78
2022/10/14 04:18:16;;;;;;;85.67;23.17;;;11.70;99.90;;;;;;5025015;28;20209;-79
2022/10/14 04:20:43;;;;;;;87.10;23.47;;;11.80;99.90;;;;;;5020069;28;20228;-79
2022/10/14 04:23:12;;;;;;;94.27;25.60;;;11.50;99.90;;;;;;5038467;28;20225;-78
2022/10/14 04:25:39;;;;;;;96.43;26.33;;;11.90;99.90;;;;;;5017990;28;20213;-80
2022/10/14 04:28:06;;;;;;;91.53;25.27;;;12.00;99.90;;;;;;5038709;28;20213;-80
2022/10/14 04:30:34;;;;;;;89.77;26.50;;;11.90;99.90;;;;;;5039842;28;20213;-78
2022/10/14 04:33:01;;;;;;;87.90;24.80;;;11.90;99.90;;;;;;5040066;28;20713;-79
2022/10/14 04:35:28;;;;;;;93.33;27.63;;;12.00;99.90;;;;;;5041457;28;20233;-81
2022/10/14 04:37:55;;;;;;;98.03;27.10;;;11.90;99.90;;;;;;5019085;28;20217;-79
2022/10/14 04:40:24;;;;;;;105.20;26.83;;;12.00;99.90;;;;;;5034593;28;20205;-78
2022/10/14 04:42:56;;;;;;;131.70;28.93;;;12.00;99.90;;;;;;5024753;28;20267;-78
2022/10/14 04:45:24;;;;;;;122.60;29.47;;;12.00;99.90;;;;;;5023929;28;20212;-79
2022/10/14 04:47:51;;;;;;;167.60;30.03;;;12.00;99.90;;;;;;5037346;28;20253;-79
2022/10/14 04:50:18;;;;;;;158.73;30.20;;;11.90;99.90;;;;;;5042381;28;20248;-79
2022/10/14 04:52:45;;;;;;;128.03;30.10;;;11.90;99.90;;;;;;5042369;28;20205;-78
2022/10/14 04:55:12;;;;;;;174.43;31.13;;;12.00;99.90;;;;;;5023391;28;20245;-77
2022/10/14 04:57:42;;;;;;;163.10;31.13;;;12.00;99.90;;;;;;5025731;28;20205;-78
2022/10/14 05:00:12;;;;;;;186.13;34.40;;;12.00;99.90;;;;;;5042993;28;20209;-78
2022/10/14 05:02:39;;;;;;;137.47;30.60;;;12.00;99.90;;;;;;5023872;28;20209;-79
2022/10/14 05:05:06;;;;;;;152.77;30.43;;;12.10;99.90;;;;;;5040645;28;20328;-79
2022/10/14 05:07:34;;;;;;;133.87;30.27;;;12.00;99.90;;;;;;5024516;28;20205;-79
2022/10/14 05:10:03;;;;;;;189.47;32.40;;;12.10;99.90;;;;;;5042251;28;20225;-78
2022/10/14 05:12:31;;;;;;;135.00;30.67;;;12.10;99.90;;;;;;5031490;28;20276;-78
2022/10/14 05:14:58;;;;;;;170.20;30.40;;;12.10;99.90;;;;;;5017556;28;20213;-77
2022/10/14 05:17:25;;;;;;;156.87;29.83;;;12.10;99.90;;;;;;5004526;28;20202;-78
2022/10/14 05:19:52;;;;;;;171.53;29.00;;;12.10;99.90;;;;;;5019832;28;20313;-78
2022/10/14 05:22:19;;;;;;;149.90;28.93;;;12.10;99.90;;;;;;5032034;28;20291;-77
2022/10/14 05:24:46;;;;;;;169.43;30.43;;;12.30;99.90;;;;;;5039710;28;20256;-79
2022/10/14 05:27:13;;;;;;;167.63;30.03;;;12.10;99.90;;;;;;5023202;28;20264;-78
2022/10/14 05:29:40;;;;;;;204.33;31.53;;;12.00;99.90;;;;;;5042840;28;20209;-78
2022/10/14 05:32:07;;;;;;;168.10;31.93;;;12.00;99.90;;;;;;5040980;28;20229;-79
2022/10/14 05:34:34;;;;;;;163.60;31.53;;;12.10;99.90;;;;;;5040112;28;20298;-78
2022/10/14 05:37:02;;;;;;;146.70;31.60;;;12.10;99.90;;;;;;5028507;28;20201;-77
2022/10/14 05:39:29;;;;;;;172.80;32.80;;;12.10;99.90;;;;;;5045731;28;20263;-78
2022/10/14 05:41:56;;;;;;;167.90;34.30;;;12.30;99.90;;;;;;5027786;28;20690;-78
2022/10/14 05:44:23;;;;;;;159.33;33.13;;;12.10;99.90;;;;;;5042783;28;20589;-78
2022/10/14 05:46:50;;;;;;;141.20;31.77;;;12.10;99.90;;;;;;5044638;28;20486;-78
2022/10/14 05:49:17;;;;;;;188.80;34.60;;;12.10;99.90;;;;;;5033422;28;20669;-78
2022/10/14 05:51:43;;;;;;;121.70;31.87;;;12.10;99.90;;;;;;5040034;28;20552;-78
2022/10/14 05:54:11;;;;;;;132.23;32.40;;;12.20;99.90;;;;;;5027161;28;20232;-78
2022/10/14 05:56:38;;;;;;;147.70;32.77;;;12.10;99.90;;;;;;5037217;28;20259;-79
2022/10/14 05:59:04;;;;;;;193.00;35.40;;;12.20;99.90;;;;;;5020146;28;20304;-79
2022/10/14 06:01:33;;;;;;;174.17;34.47;;;12.30;99.90;;;;;;5037388;28;20206;-77
2022/10/14 06:04:00;;;;;;;192.33;37.40;;;12.30;99.90;;;;;;5036198;28;20233;-79
2022/10/14 06:06:27;;;;;;;227.80;39.27;;;12.30;99.90;;;;;;5022402;28;20221;-80
2022/10/14 06:08:55;;;;;;;211.07;37.33;;;12.20;99.90;;;;;;5039620;28;20236;-77
2022/10/14 06:11:24;;;;;;;186.90;37.80;;;12.00;99.90;;;;;;5023538;28;20210;-78
2022/10/14 06:13:51;;;;;;;183.23;37.07;;;12.20;99.90;;;;;;5033945;28;20757;-79
2022/10/14 06:16:18;;;;;;;240.33;39.93;;;12.30;99.90;;;;;;5043689;28;20548;-78
2022/10/14 06:18:47;;;;;;;174.17;36.53;;;12.30;99.90;;;;;;5044527;28;20209;-80
2022/10/14 06:21:20;;;;;;;210.10;37.73;;;12.30;99.90;;;;;;5047976;28;20205;-78
2022/10/14 06:23:49;;;;;;;176.17;36.60;;;12.30;99.90;;;;;;5058182;28;20556;-79
2022/10/14 06:26:16;;;;;;;177.73;37.20;;;12.30;99.90;;;;;;5034725;28;20244;-79
2022/10/14 06:28:43;;;;;;;233.60;40.07;;;12.50;99.90;;;;;;5023857;28;20662;-80
2022/10/14 06:31:10;;;;;;;236.27;41.07;;;12.40;99.90;;;;;;5034857;28;20304;-80
2022/10/14 06:33:37;;;;;;;217.47;41.33;;;12.40;99.90;;;;;;5025433;28;20233;-80
2022/10/14 06:36:08;;;;;;;201.37;40.20;;;12.40;99.90;;;;;;5028023;28;20653;-78
2022/10/14 06:38:34;;;;;;;232.70;42.60;;;12.40;99.90;;;;;;5041341;28;20641;-79
2022/10/14 06:41:01;;;;;;;202.67;40.80;;;12.50;99.90;;;;;;5025628;28;20280;-78
2022/10/14 06:43:28;;;;;;;156.10;37.43;;;12.50;99.90;;;;;;5044584;28;20234;-78
2022/10/14 06:45:56;;;;;;;198.80;40.33;;;12.50;99.90;;;;;;5039940;28;20293;-78
2022/10/14 06:48:23;;;;;;;186.03;39.43;;;12.60;99.90;;;;;;5026213;28;20259;-78
2022/10/14 06:50:50;;;;;;;212.60;38.23;;;12.60;99.90;;;;;;5046041;28;20681;-78
2022/10/14 06:53:18;;;;;;;147.20;36.20;;;12.70;99.90;;;;;;5034686;28;20206;-77
2022/10/14 06:55:45;;;;;;;146.77;36.57;;;12.60;99.90;;;;;;5047422;28;20229;-76
2022/10/14 06:58:12;;;;;;;158.63;39.70;;;12.60;99.90;;;;;;5053395;28;20209;-79
2022/10/14 07:00:39;;;;;;;166.07;38.23;;;12.60;99.90;;;;;;5033359;28;20224;-78
2022/10/14 07:03:15;;;;;;;151.97;37.73;;;12.70;99.90;;;;;;5031556;28;20208;-79
2022/10/14 07:05:41;;;;;;;148.10;39.53;;;12.70;99.90;;;;;;5042575;28;20217;-77
2022/10/14 07:08:08;;;;;;;141.00;37.23;;;12.70;99.90;;;;;;5050634;28;20255;-76
2022/10/14 07:10:42;;;;;;;143.77;36.27;;;12.70;99.90;;;;;;5047498;28;20213;-76
2022/10/14 07:13:08;;;;;;;125.67;36.00;;;12.70;99.90;;;;;;5042242;28;20228;-76
2022/10/14 07:15:37;;;;;;;112.90;34.13;;;12.70;99.90;;;;;;5044604;28;20537;-77
2022/10/14 07:18:05;;;;;;;134.60;36.30;;;12.70;99.90;;;;;;5026464;28;20533;-75
2022/10/14 07:20:35;;;;;;;113.60;35.40;;;12.70;99.90;;;;;;5018290;28;20217;-79
2022/10/14 07:23:02;;;;;;;122.00;35.80;;;12.90;99.90;;;;;;5041972;28;20228;-76
2022/10/14 07:25:29;;;;;;;106.57;33.63;;;12.80;99.90;;;;;;5043624;28;20311;-77
2022/10/14 07:27:56;;;;;;;111.50;33.03;;;12.80;99.90;;;;;;5042727;28;20213;-75
2022/10/14 07:30:31;;;;;;;101.97;33.63;;;12.80;99.90;;;;;;5028151;28;20699;-75
2022/10/14 07:32:58;;;;;;;97.50;32.10;;;12.90;99.90;;;;;;5045602;28;20251;-77
2022/10/14 07:35:28;;;;;;;93.93;32.40;;;12.90;99.90;;;;;;5042405;28;20267;-75
2022/10/14 07:37:58;;;;;;;99.47;32.63;;;12.90;99.90;;;;;;5042830;28;20201;-75
2022/10/14 07:40:27;;;;;;;100.63;31.57;;;13.00;99.90;;;;;;5035449;28;20566;-75
2022/10/14 07:42:54;;;;;;;99.17;30.47;;;12.90;99.90;;;;;;5045580;28;20208;-76
2022/10/14 07:45:23;;;;;;;90.90;30.53;;;13.00;99.90;;;;;;5038180;28;20727;-75
2022/10/14 07:47:50;;;;;;;88.97;31.63;;;13.00;99.90;;;;;;5019638;28;20489;-75
2022/10/14 07:50:17;;;;;;;101.17;33.60;;;13.10;99.90;;;;;;5043104;28;20330;-76
2022/10/14 07:52:44;;;;;;;92.70;31.77;;;13.10;99.90;;;;;;5054495;28;20224;-75
2022/10/14 07:55:11;;;;;;;96.00;31.37;;;13.20;99.90;;;;;;5046186;28;20216;-75
2022/10/14 07:57:38;;;;;;;91.13;32.80;;;13.20;99.90;;;;;;5043461;28;20248;-76
2022/10/14 08:00:05;;;;;;;89.80;33.17;;;13.30;99.90;;;;;;5057749;28;20778;-76
2022/10/14 08:02:32;;;;;;;87.77;31.73;;;13.30;99.90;;;;;;5034928;28;21479;-74
2022/10/14 08:05:00;;;;;;;86.10;31.33;;;13.40;99.90;;;;;;5038864;28;20259;-76
2022/10/14 08:07:47;;;;;;;84.63;29.73;;;13.40;99.90;;;;;;5053210;28;20557;-75
2022/10/14 08:10:14;;;;;;;83.37;30.73;;;13.50;99.90;;;;;;5027580;28;20256;-77
2022/10/14 08:12:41;;;;;;;78.13;31.13;;;13.50;99.90;;;;;;5044294;28;20656;-76
2022/10/14 08:15:08;;;;;;;72.17;29.37;;;13.60;99.90;;;;;;5040941;28;20697;-75
2022/10/14 08:17:35;;;;;;;75.53;28.50;;;13.60;99.90;;;;;;5021987;28;20202;-75
2022/10/14 08:20:02;;;;;;;75.03;27.87;;;13.70;99.90;;;;;;5022760;28;20264;-76
2022/10/14 08:22:29;;;;;;;72.37;28.53;;;13.70;99.90;;;;;;5034644;28;20237;-77
2022/10/14 08:24:55;;;;;;;77.80;27.37;;;13.80;99.90;;;;;;5021664;28;20275;-75
2022/10/14 08:27:25;;;;;;;64.20;26.20;;;13.80;99.90;;;;;;5022788;28;20220;-76
2022/10/14 08:29:53;;;;;;;67.07;27.13;;;13.90;99.90;;;;;;5017187;28;20627;-76
2022/10/14 08:32:21;;;;;;;62.20;25.47;;;14.00;99.90;;;;;;5042160;28;20201;-75
2022/10/14 08:34:49;;;;;;;61.90;25.00;;;14.00;99.90;;;;;;5023819;28;20241;-76
2022/10/14 08:37:16;;;;;;;66.17;25.63;;;14.00;99.90;;;;;;5034486;28;20217;-74
2022/10/14 08:39:43;;;;;;;58.30;24.57;;;14.10;99.90;;;;;;5043389;28;20348;-75
2022/10/14 08:42:19;;;;;;;51.27;22.43;;;14.10;99.90;;;;;;5035632;28;20206;-75
2022/10/14 08:44:55;;;;;;;52.33;21.87;;;14.20;99.90;;;;;;5038297;28;20643;-76
2022/10/14 08:47:34;;;;;;;52.37;22.03;;;14.20;99.90;;;;;;5018518;28;20205;-76
2022/10/14 08:50:25;;;;;;;47.90;21.33;;;14.30;99.90;;;;;;5022110;28;20260;-75
2022/10/14 08:52:59;;;;;;;45.77;20.73;;;14.30;99.90;;;;;;5030992;28;20300;-76
2022/10/14 08:55:36;;;;;;;42.33;18.17;;;14.30;99.90;;;;;;5039895;28;20209;-76
2022/10/14 08:58:19;;;;;;;46.93;19.87;;;14.40;99.90;;;;;;5018910;28;20193;-74
2022/10/14 09:00:51;;;;;;;38.40;19.27;;;14.50;99.90;;;;;;5037439;28;20591;-75
2022/10/14 09:03:22;;;;;;;40.43;18.57;;;14.50;99.90;;;;;;5021818;28;20209;-75
2022/10/14 09:06:09;;;;;;;37.10;17.77;;;14.50;99.90;;;;;;5040029;28;20279;-78
2022/10/14 09:08:41;;;;;;;36.03;17.43;;;14.60;99.90;;;;;;5036281;28;20228;-76
2022/10/14 09:11:17;;;;;;;32.43;15.90;;;14.70;99.90;;;;;;5023531;28;20220;-76
2022/10/14 09:13:48;;;;;;;27.90;15.80;;;14.80;99.90;;;;;;5036463;28;20221;-75
2022/10/14 09:16:29;;;;;;;25.20;14.13;;;14.80;99.90;;;;;;5031599;28;20397;-75
2022/10/14 09:19:02;;;;;;;26.17;14.27;;;14.90;99.90;;;;;;5028065;28;20291;-76
2022/10/14 09:21:33;;;;;;;28.60;15.10;;;14.90;99.90;;;;;;5036449;28;20304;-77
2022/10/14 09:24:22;;;;;;;23.40;13.63;;;14.90;99.90;;;;;;5022212;28;20750;-75
2022/10/14 09:26:56;;;;;;;23.57;14.20;;;15.00;99.90;;;;;;5024151;28;20297;-76
2022/10/14 09:29:53;;;;;;;26.93;15.30;;;15.10;99.90;;;;;;5038029;28;20318;-75
2022/10/14 09:32:28;;;;;;;25.40;15.33;;;15.20;99.90;;;;;;5040017;28;20686;-76
2022/10/14 09:34:59;;;;;;;24.90;15.00;;;15.30;99.90;;;;;;5037245;28;20263;-75
2022/10/14 09:37:30;;;;;;;25.20;15.17;;;15.30;99.90;;;;;;5039812;28;20202;-75
2022/10/14 09:40:49;;;;;;;21.60;13.93;;;15.40;99.90;;;;;;5026803;28;20229;-76
2022/10/14 09:43:20;;;;;;;21.57;13.63;;;15.60;99.90;;;;;;4996580;28;20241;-75
2022/10/14 09:45:50;;;;;;;21.47;13.63;;;15.60;99.90;;;;;;5041558;28;20233;-76
2022/10/14 09:48:43;;;;;;;23.30;13.27;;;15.60;99.90;;;;;;5042566;28;20658;-76
2022/10/14 09:51:18;;;;;;;20.70;13.27;;;15.70;99.90;;;;;;5040983;28;20209;-78
2022/10/14 09:53:48;;;;;;;19.33;12.90;;;15.70;99.90;;;;;;5039925;28;20209;-77
2022/10/14 09:56:33;;;;;;;17.77;12.50;;;15.70;99.90;;;;;;5027149;28;20212;-79
2022/10/14 09:59:19;;;;;;;16.07;11.37;;;15.80;99.90;;;;;;5024275;28;20213;-76
2022/10/14 10:01:53;;;;;;;15.40;10.10;;;15.80;99.90;;;;;;5038266;28;20276;-76
2022/10/14 10:04:45;;;;;;;14.65;11.15;;;15.80;99.90;;;;;;5042392;28;20229;-75
2022/10/14 10:07:29;;;;;;;14.27;10.40;;;16.10;99.90;;;;;;5038984;28;20313;-77
2022/10/14 10:09:59;;;;;;;14.30;10.18;;;16.00;99.90;;;;;;5021590;28;20202;-78
2022/10/14 10:12:34;;;;;;;12.23;9.35;;;16.10;99.90;;;;;;5040285;28;20699;-76
2022/10/14 10:15:04;;;;;;;11.63;8.98;;;16.10;99.90;;;;;;5026263;28;20225;-76
2022/10/14 10:17:34;;;;;;;12.50;9.10;;;16.20;99.90;;;;;;5020269;28;20750;-76
2022/10/14 10:20:14;;;;;;;11.90;9.18;;;16.20;99.90;;;;;;5021336;28;20355;-76
2022/10/14 10:22:41;;;;;;;11.93;8.55;;;16.20;99.90;;;;;;5038087;28;20220;-76
2022/10/14 10:25:08;;;;;;;12.80;8.75;;;16.20;99.90;;;;;;5037163;28;20229;-76
2022/10/14 10:27:38;;;;;;;12.90;9.45;;;16.40;99.90;;;;;;5037456;28;20241;-76
2022/10/14 10:30:17;;;;;;;10.82;8.63;;;16.20;99.90;;;;;;5038556;28;20206;-76
2022/10/14 10:32:46;;;;;;;9.98;8.52;;;16.30;99.90;;;;;;5038947;28;20321;-76
2022/10/14 10:35:16;;;;;;;9.52;7.75;;;16.40;99.90;;;;;;5040199;28;20255;-75
2022/10/14 10:38:08;;;;;;;8.43;7.28;;;16.50;99.90;;;;;;5039279;28;20238;-75
2022/10/14 10:40:38;;;;;;;11.63;7.85;;;16.50;99.90;;;;;;5038753;28;20335;-77
2022/10/14 10:43:31;;;;;;;9.48;7.53;;;16.50;99.90;;;;;;5020480;28;20213;-76
2022/10/14 10:46:04;;;;;;;8.65;7.13;;;16.60;99.90;;;;;;5039292;28;20697;-76
2022/10/14 10:48:54;;;;;;;8.82;7.28;;;16.60;99.90;;;;;;5020263;28;20289;-76
2022/10/14 10:51:25;;;;;;;10.75;8.20;;;16.60;99.90;;;;;;5038703;28;20607;-75
2022/10/14 10:54:08;;;;;;;9.27;8.18;;;16.60;99.90;;;;;;5038727;28;20200;-75
2022/10/14 10:56:51;;;;;;;11.07;8.50;;;16.60;99.90;;;;;;5041846;28;20710;-75
2022/10/14 10:59:36;;;;;;;11.10;8.82;;;16.50;99.90;;;;;;5040900;28;20233;-76
2022/10/14 11:02:18;;;;;;;12.45;9.35;;;16.50;99.90;;;;;;5040941;28;20300;-75
2022/10/14 11:05:15;;;;;;;14.57;10.20;;;16.50;99.90;;;;;;5024213;28;20220;-75
2022/10/14 11:13:55;;;;;;;14.23;11.98;;;16.50;99.90;;;;;;5043076;28;20719;-75
2022/10/14 11:16:51;;;;;;;13.57;10.93;;;16.50;99.90;;;;;;5025236;28;20209;-76
2022/10/14 11:19:38;;;;;;;14.13;11.90;;;16.50;99.90;;;;;;5040505;28;20702;-75
2022/10/14 11:22:27;;;;;;;15.48;12.38;;;16.50;99.90;;;;;;5020940;28;20647;-76
2022/10/14 11:25:03;;;;;;;13.88;12.07;;;16.60;99.90;;;;;;5039692;28;20256;-75
2022/10/14 11:27:42;;;;;;;15.95;12.85;;;16.60;99.90;;;;;;5025290;28;20244;-76
2022/10/14 11:30:15;;;;;;;14.38;12.07;;;16.60;99.90;;;;;;5043023;28;20197;-77
2022/10/14 11:33:08;;;;;;;16.10;12.68;;;16.70;99.90;;;;;;5021963;28;20677;-76
2022/10/14 11:36:17;;;;;;;14.07;11.80;;;16.70;99.90;;;;;;5026710;28;20308;-77
2022/10/14 11:39:04;;;;;;;15.02;11.65;;;16.70;99.90;;;;;;5055866;28;20583;-75
2022/10/14 11:41:31;;;;;;;17.42;12.02;;;16.70;99.90;;;;;;5049463;28;20292;-76
2022/10/14 11:44:14;;;;;;;14.75;12.07;;;16.90;99.90;;;;;;5054528;28;20291;-75
2022/10/14 11:46:47;;;;;;;15.85;12.25;;;16.80;99.90;;;;;;5054445;28;20256;-75
2022/10/14 11:49:39;;;;;;;14.88;12.35;;;16.80;99.90;;;;;;5027267;28;20216;-76
2022/10/14 11:52:13;;;;;;;18.20;12.50;;;16.90;99.90;;;;;;5029189;28;20209;-76
2022/10/14 11:54:49;;;;;;;15.88;12.32;;;16.80;99.90;;;;;;5044029;28;20740;-75
2022/10/14 11:57:32;;;;;;;15.57;12.68;;;16.80;99.90;;;;;;5039990;28;20288;-75
2022/10/14 12:00:20;;;;;;;15.65;12.57;;;16.80;99.90;;;;;;5041684;28;20252;-77
2022/10/14 12:03:13;;;;;;;14.90;12.15;;;16.80;99.90;;;;;;5046906;28;20204;-75
2022/10/14 12:05:48;;;;;;;16.75;13.40;;;16.80;99.90;;;;;;5038850;28;20237;-75
2022/10/14 12:08:29;;;;;;;17.55;13.35;;;16.80;99.90;;;;;;5034744;28;20726;-76
2022/10/14 12:11:21;;;;;;;16.17;13.30;;;16.80;99.90;;;;;;5036947;28;20206;-75
2022/10/14 12:13:53;;;;;;;16.67;12.82;;;16.80;99.90;;;;;;5038834;28;20536;-77
2022/10/14 12:16:22;;;;;;;15.55;12.57;;;16.80;99.90;;;;;;5036157;28;20213;-76
2022/10/14 12:18:54;;;;;;;16.35;13.25;;;16.80;99.90;;;;;;5037044;28;20305;-75
2022/10/14 12:21:55;;;;;;;17.55;13.23;;;16.80;99.90;;;;;;5038439;28;20206;-75
2022/10/14 12:24:28;;;;;;;15.77;12.98;;;16.80;99.90;;;;;;5035253;28;20754;-76
2022/10/14 12:27:03;;;;;;;19.60;13.00;;;16.70;99.90;;;;;;5039413;28;20609;-75
2022/10/14 12:29:39;;;;;;;18.27;13.45;;;16.70;99.90;;;;;;5040744;28;20251;-76
2022/10/14 12:32:29;;;;;;;19.13;13.23;;;16.70;99.90;;;;;;5034755;28;20213;-75
2022/10/14 12:35:00;;;;;;;19.00;13.60;;;16.70;99.90;;;;;;5012788;28;20351;-76
2022/10/14 12:37:30;;;;;;;14.20;12.27;;;16.60;99.90;;;;;;5035032;28;20206;-75
2022/10/14 12:40:01;;;;;;;15.85;12.45;;;16.60;99.90;;;;;;5016988;28;20284;-76
2022/10/14 12:42:51;;;;;;;16.88;13.25;;;16.60;99.90;;;;;;5036809;28;20224;-76
2022/10/14 12:45:22;;;;;;;15.90;12.32;;;16.60;99.90;;;;;;5034851;28;20316;-75
2022/10/14 12:48:14;;;;;;;16.70;12.02;;;16.70;99.90;;;;;;5035777;28;20228;-76
2022/10/14 12:50:46;;;;;;;17.23;13.05;;;16.50;99.90;;;;;;5032421;28;20589;-77
2022/10/14 12:53:31;;;;;;;17.17;12.43;;;16.50;99.90;;;;;;5035704;28;20263;-77
2022/10/14 12:56:03;;;;;;;19.02;12.77;;;16.50;99.90;;;;;;5035140;28;20237;-77
2022/10/14 12:58:29;;;;;;;17.15;12.90;;;16.50;99.90;;;;;;5041293;28;20326;-77
2022/10/14 13:01:18;;;;;;;18.25;12.88;;;16.90;99.90;;;;;;5046192;28;20221;-78